sensor_id;sensor_type;location;lat;lon;timestamp;P1;durP1;ratioP1;P2;durP2;ratioP2
51467;SDS011;37545;45.302;-122.946;2023-03-08T00:00:04;3.47;;;0.63;;
51467;SDS011;37545;45.302;-122.946;2023-03-08T00:02:34;1.00;;;0.38;;
51467;SDS011;37545;45.302;-122.946;2023-03-08T00:05:03;0.77;;;0.40;;
51467;SDS011;37545;45.302;-122.946;2023-03-08T00:07:34;1.25;;;0.60;;
51467;SDS011;37545;45.302;-122.946;2023-03-08T00:10:03;1.05;;;0.63;;
51467;SDS011;37545;45.302;-122.946;2023-03-08T00:12:32;1.67;;;0.95;;
51467;SDS011;37545;45.302;-122.946;2023-03-08T00:15:00;1.65;;;0.82;;
51467;SDS011;37545;45.302;-122.946;2023-03-08T00:17:29;1.17;;;0.60;;
51467;SDS011;37545;45.302;-122.946;2023-03-08T00:19:57;1.65;;;0.63;;
51467;SDS011;37545;45.302;-122.946;2023-03-08T00:22:27;1.55;;;0.93;;
51467;SDS011;37545;45.302;-122.946;2023-03-08T00:24:56;2.13;;;0.70;;
51467;SDS011;37545;45.302;-122.946;2023-03-08T00:27:24;1.58;;;0.70;;
51467;SDS011;37545;45.302;-122.946;2023-03-08T00:29:53;1.52;;;0.57;;
51467;SDS011;37545;45.302;-122.946;2023-03-08T00:32:22;0.85;;;0.50;;
51467;SDS011;37545;45.302;-122.946;2023-03-08T00:34:52;0.95;;;0.38;;
51467;SDS011;37545;45.302;-122.946;2023-03-08T00:37:21;0.40;;;0.35;;
51467;SDS011;37545;45.302;-122.946;2023-03-08T00:39:51;0.40;;;0.20;;
51467;SDS011;37545;45.302;-122.946;2023-03-08T00:42:20;0.43;;;0.20;;
51467;SDS011;37545;45.302;-122.946;2023-03-08T00:44:49;0.73;;;0.45;;
51467;SDS011;37545;45.302;-122.946;2023-03-08T00:47:18;0.95;;;0.55;;
51467;SDS011;37545;45.302;-122.946;2023-03-08T00:49:46;0.82;;;0.20;;
51467;SDS011;37545;45.302;-122.946;2023-03-08T00:52:15;0.40;;;0.30;;
51467;SDS011;37545;45.302;-122.946;2023-03-08T00:54:44;0.50;;;0.30;;
51467;SDS011;37545;45.302;-122.946;2023-03-08T00:57:14;0.40;;;0.38;;
51467;SDS011;37545;45.302;-122.946;2023-03-08T00:59:42;0.30;;;0.25;;
51467;SDS011;37545;45.302;-122.946;2023-03-08T01:02:11;1.20;;;0.60;;
51467;SDS011;37545;45.302;-122.946;2023-03-08T01:04:39;1.55;;;0.50;;
51467;SDS011;37545;45.302;-122.946;2023-03-08T01:07:08;1.02;;;0.40;;
51467;SDS011;37545;45.302;-122.946;2023-03-08T01:09:36;1.15;;;0.68;;
51467;SDS011;37545;45.302;-122.946;2023-03-08T01:12:05;0.88;;;0.70;;
51467;SDS011;37545;45.302;-122.946;2023-03-08T01:14:36;0.80;;;0.57;;
51467;SDS011;37545;45.302;-122.946;2023-03-08T01:17:04;1.45;;;0.70;;
51467;SDS011;37545;45.302;-122.946;2023-03-08T01:19:33;0.98;;;0.77;;
51467;SDS011;37545;45.302;-122.946;2023-03-08T01:22:01;3.08;;;1.08;;
51467;SDS011;37545;45.302;-122.946;2023-03-08T01:24:30;1.10;;;0.77;;
51467;SDS011;37545;45.302;-122.946;2023-03-08T01:26:59;2.00;;;0.90;;
51467;SDS011;37545;45.302;-122.946;2023-03-08T01:29:27;1.45;;;0.98;;
51467;SDS011;37545;45.302;-122.946;2023-03-08T01:31:57;2.38;;;0.98;;
51467;SDS011;37545;45.302;-122.946;2023-03-08T01:34:26;1.38;;;0.88;;
51467;SDS011;37545;45.302;-122.946;2023-03-08T01:36:54;1.45;;;1.05;;
51467;SDS011;37545;45.302;-122.946;2023-03-08T01:39:23;1.75;;;1.13;;
51467;SDS011;37545;45.302;-122.946;2023-03-08T01:41:51;1.00;;;0.80;;
51467;SDS011;37545;45.302;-122.946;2023-03-08T01:44:20;2.45;;;0.90;;
51467;SDS011;37545;45.302;-122.946;2023-03-08T01:46:49;3.22;;;0.90;;
51467;SDS011;37545;45.302;-122.946;2023-03-08T01:49:20;0.50;;;0.50;;
51467;SDS011;37545;45.302;-122.946;2023-03-08T01:51:51;1.38;;;0.40;;
51467;SDS011;37545;45.302;-122.946;2023-03-08T01:54:24;0.25;;;0.20;;
51467;SDS011;37545;45.302;-122.946;2023-03-08T01:56:57;0.52;;;0.20;;
51467;SDS011;37545;45.302;-122.946;2023-03-08T01:59:29;0.30;;;0.20;;
51467;SDS011;37545;45.302;-122.946;2023-03-08T02:02:01;0.37;;;0.23;;
51467;SDS011;37545;45.302;-122.946;2023-03-08T02:04:31;0.08;;;0.08;;
51467;SDS011;37545;45.302;-122.946;2023-03-08T02:07:00;0.20;;;0.10;;
51467;SDS011;37545;45.302;-122.946;2023-03-08T02:09:28;0.38;;;0.10;;
51467;SDS011;37545;45.302;-122.946;2023-03-08T02:11:58;0.57;;;0.40;;
51467;SDS011;37545;45.302;-122.946;2023-03-08T02:14:30;0.30;;;0.20;;
51467;SDS011;37545;45.302;-122.946;2023-03-08T02:16:59;1.27;;;0.40;;
51467;SDS011;37545;45.302;-122.946;2023-03-08T02:19:28;0.10;;;0.10;;
51467;SDS011;37545;45.302;-122.946;2023-03-08T02:22:08;0.10;;;0.10;;
51467;SDS011;37545;45.302;-122.946;2023-03-08T02:24:41;0.57;;;0.28;;
51467;SDS011;37545;45.302;-122.946;2023-03-08T02:27:10;0.10;;;0.00;;
51467;SDS011;37545;45.302;-122.946;2023-03-08T02:29:41;0.45;;;0.13;;
51467;SDS011;37545;45.302;-122.946;2023-03-08T02:32:09;0.38;;;0.20;;
51467;SDS011;37545;45.302;-122.946;2023-03-08T02:34:38;0.40;;;0.20;;
51467;SDS011;37545;45.302;-122.946;2023-03-08T02:37:06;0.10;;;0.03;;
51467;SDS011;37545;45.302;-122.946;2023-03-08T02:39:35;0.50;;;0.30;;
51467;SDS011;37545;45.302;-122.946;2023-03-08T02:42:05;1.55;;;0.30;;
51467;SDS011;37545;45.302;-122.946;2023-03-08T02:44:34;0.20;;;0.10;;
51467;SDS011;37545;45.302;-122.946;2023-03-08T02:47:03;0.40;;;0.17;;
51467;SDS011;37545;45.302;-122.946;2023-03-08T02:49:31;0.10;;;0.10;;
51467;SDS011;37545;45.302;-122.946;2023-03-08T02:52:00;0.47;;;0.20;;
51467;SDS011;37545;45.302;-122.946;2023-03-08T02:54:28;0.32;;;0.30;;
51467;SDS011;37545;45.302;-122.946;2023-03-08T02:56:57;1.23;;;0.32;;
51467;SDS011;37545;45.302;-122.946;2023-03-08T02:59:27;0.20;;;0.20;;
51467;SDS011;37545;45.302;-122.946;2023-03-08T03:01:56;0.13;;;0.10;;
51467;SDS011;37545;45.302;-122.946;2023-03-08T03:04:28;0.85;;;0.65;;
51467;SDS011;37545;45.302;-122.946;2023-03-08T03:06:57;0.75;;;0.38;;
51467;SDS011;37545;45.302;-122.946;2023-03-08T03:09:26;0.50;;;0.30;;
51467;SDS011;37545;45.302;-122.946;2023-03-08T03:11:55;0.35;;;0.17;;
51467;SDS011;37545;45.302;-122.946;2023-03-08T03:14:27;0.57;;;0.40;;
51467;SDS011;37545;45.302;-122.946;2023-03-08T03:16:56;0.35;;;0.10;;
51467;SDS011;37545;45.302;-122.946;2023-03-08T03:19:25;0.32;;;0.10;;
51467;SDS011;37545;45.302;-122.946;2023-03-08T03:22:00;0.30;;;0.20;;
51467;SDS011;37545;45.302;-122.946;2023-03-08T03:24:29;0.32;;;0.17;;
51467;SDS011;37545;45.302;-122.946;2023-03-08T03:26:57;1.48;;;0.47;;
51467;SDS011;37545;45.302;-122.946;2023-03-08T03:29:28;0.30;;;0.30;;
51467;SDS011;37545;45.302;-122.946;2023-03-08T03:31:56;0.55;;;0.30;;
51467;SDS011;37545;45.302;-122.946;2023-03-08T03:34:25;0.70;;;0.40;;
51467;SDS011;37545;45.302;-122.946;2023-03-08T03:36:54;1.23;;;0.30;;
51467;SDS011;37545;45.302;-122.946;2023-03-08T03:39:23;8.85;;;0.65;;
51467;SDS011;37545;45.302;-122.946;2023-03-08T03:41:51;0.77;;;0.47;;
51467;SDS011;37545;45.302;-122.946;2023-03-08T03:44:20;0.50;;;0.40;;
51467;SDS011;37545;45.302;-122.946;2023-03-08T03:46:50;0.40;;;0.30;;
51467;SDS011;37545;45.302;-122.946;2023-03-08T03:49:18;0.55;;;0.30;;
51467;SDS011;37545;45.302;-122.946;2023-03-08T03:51:47;0.10;;;0.05;;
51467;SDS011;37545;45.302;-122.946;2023-03-08T03:54:16;1.88;;;0.17;;
51467;SDS011;37545;45.302;-122.946;2023-03-08T03:56:44;0.10;;;0.10;;
51467;SDS011;37545;45.302;-122.946;2023-03-08T03:59:13;0.30;;;0.20;;
51467;SDS011;37545;45.302;-122.946;2023-03-08T04:01:41;0.30;;;0.20;;
51467;SDS011;37545;45.302;-122.946;2023-03-08T04:04:12;0.45;;;0.30;;
51467;SDS011;37545;45.302;-122.946;2023-03-08T04:06:40;0.43;;;0.20;;
51467;SDS011;37545;45.302;-122.946;2023-03-08T04:09:11;0.57;;;0.43;;
51467;SDS011;37545;45.302;-122.946;2023-03-08T04:11:41;0.40;;;0.40;;
51467;SDS011;37545;45.302;-122.946;2023-03-08T04:14:10;0.13;;;0.13;;
51467;SDS011;37545;45.302;-122.946;2023-03-08T04:16:39;2.75;;;0.25;;
51467;SDS011;37545;45.302;-122.946;2023-03-08T04:19:18;1.00;;;0.50;;
51467;SDS011;37545;45.302;-122.946;2023-03-08T04:21:46;0.88;;;0.50;;
51467;SDS011;37545;45.302;-122.946;2023-03-08T04:24:15;0.52;;;0.40;;
51467;SDS011;37545;45.302;-122.946;2023-03-08T04:26:44;0.93;;;0.35;;
51467;SDS011;37545;45.302;-122.946;2023-03-08T04:29:26;0.70;;;0.40;;
51467;SDS011;37545;45.302;-122.946;2023-03-08T04:31:56;0.30;;;0.25;;
51467;SDS011;37545;45.302;-122.946;2023-03-08T04:34:27;0.20;;;0.08;;
51467;SDS011;37545;45.302;-122.946;2023-03-08T04:36:55;1.50;;;0.50;;
51467;SDS011;37545;45.302;-122.946;2023-03-08T04:39:24;1.02;;;0.22;;
51467;SDS011;37545;45.302;-122.946;2023-03-08T04:41:53;0.25;;;0.17;;
51467;SDS011;37545;45.302;-122.946;2023-03-08T04:44:21;0.60;;;0.40;;
51467;SDS011;37545;45.302;-122.946;2023-03-08T04:46:50;0.40;;;0.20;;
51467;SDS011;37545;45.302;-122.946;2023-03-08T04:49:18;0.52;;;0.40;;
51467;SDS011;37545;45.302;-122.946;2023-03-08T04:51:49;0.40;;;0.20;;
51467;SDS011;37545;45.302;-122.946;2023-03-08T04:54:17;1.58;;;0.30;;
51467;SDS011;37545;45.302;-122.946;2023-03-08T04:56:46;0.38;;;0.15;;
51467;SDS011;37545;45.302;-122.946;2023-03-08T04:59:14;0.35;;;0.30;;
51467;SDS011;37545;45.302;-122.946;2023-03-08T05:01:43;0.20;;;0.20;;
51467;SDS011;37545;45.302;-122.946;2023-03-08T05:04:11;0.85;;;0.35;;
51467;SDS011;37545;45.302;-122.946;2023-03-08T05:06:40;0.63;;;0.40;;
51467;SDS011;37545;45.302;-122.946;2023-03-08T05:09:10;0.45;;;0.30;;
51467;SDS011;37545;45.302;-122.946;2023-03-08T05:11:38;0.20;;;0.20;;
51467;SDS011;37545;45.302;-122.946;2023-03-08T05:14:08;1.42;;;0.52;;
51467;SDS011;37545;45.302;-122.946;2023-03-08T05:16:36;0.77;;;0.38;;
51467;SDS011;37545;45.302;-122.946;2023-03-08T05:19:05;1.15;;;0.40;;
51467;SDS011;37545;45.302;-122.946;2023-03-08T05:21:33;0.40;;;0.30;;
51467;SDS011;37545;45.302;-122.946;2023-03-08T05:24:02;0.20;;;0.17;;
51467;SDS011;37545;45.302;-122.946;2023-03-08T05:26:33;0.40;;;0.30;;
51467;SDS011;37545;45.302;-122.946;2023-03-08T05:29:01;0.13;;;0.13;;
51467;SDS011;37545;45.302;-122.946;2023-03-08T05:31:31;0.32;;;0.25;;
51467;SDS011;37545;45.302;-122.946;2023-03-08T05:34:01;0.32;;;0.28;;
51467;SDS011;37545;45.302;-122.946;2023-03-08T05:36:29;0.25;;;0.25;;
51467;SDS011;37545;45.302;-122.946;2023-03-08T05:38:58;0.22;;;0.22;;
51467;SDS011;37545;45.302;-122.946;2023-03-08T05:41:26;0.65;;;0.50;;
51467;SDS011;37545;45.302;-122.946;2023-03-08T05:43:57;0.35;;;0.25;;
51467;SDS011;37545;45.302;-122.946;2023-03-08T05:46:27;0.65;;;0.35;;
51467;SDS011;37545;45.302;-122.946;2023-03-08T05:48:56;0.38;;;0.28;;
51467;SDS011;37545;45.302;-122.946;2023-03-08T05:51:24;0.30;;;0.30;;
51467;SDS011;37545;45.302;-122.946;2023-03-08T05:53:53;0.47;;;0.40;;
51467;SDS011;37545;45.302;-122.946;2023-03-08T05:56:22;0.68;;;0.40;;
51467;SDS011;37545;45.302;-122.946;2023-03-08T05:58:51;1.13;;;0.52;;
51467;SDS011;37545;45.302;-122.946;2023-03-08T06:01:22;0.57;;;0.38;;
51467;SDS011;37545;45.302;-122.946;2023-03-08T06:03:51;3.78;;;0.47;;
51467;SDS011;37545;45.302;-122.946;2023-03-08T06:06:22;0.70;;;0.35;;
51467;SDS011;37545;45.302;-122.946;2023-03-08T06:08:51;0.60;;;0.30;;
51467;SDS011;37545;45.302;-122.946;2023-03-08T06:11:20;0.32;;;0.20;;
51467;SDS011;37545;45.302;-122.946;2023-03-08T06:13:49;1.65;;;0.57;;
51467;SDS011;37545;45.302;-122.946;2023-03-08T06:16:17;0.30;;;0.30;;
51467;SDS011;37545;45.302;-122.946;2023-03-08T06:18:48;0.80;;;0.50;;
51467;SDS011;37545;45.302;-122.946;2023-03-08T06:21:16;21.13;;;9.07;;
51467;SDS011;37545;45.302;-122.946;2023-03-08T06:23:47;13.00;;;6.68;;
51467;SDS011;37545;45.302;-122.946;2023-03-08T06:26:17;3.05;;;0.35;;
51467;SDS011;37545;45.302;-122.946;2023-03-08T06:28:46;0.60;;;0.50;;
51467;SDS011;37545;45.302;-122.946;2023-03-08T06:31:15;1.10;;;0.32;;
51467;SDS011;37545;45.302;-122.946;2023-03-08T06:33:45;1.45;;;0.80;;
51467;SDS011;37545;45.302;-122.946;2023-03-08T06:36:16;1.70;;;1.00;;
51467;SDS011;37545;45.302;-122.946;2023-03-08T06:38:46;2.57;;;0.90;;
51467;SDS011;37545;45.302;-122.946;2023-03-08T06:41:15;3.15;;;1.30;;
51467;SDS011;37545;45.302;-122.946;2023-03-08T06:43:45;0.57;;;0.50;;
51467;SDS011;37545;45.302;-122.946;2023-03-08T06:46:14;1.85;;;0.88;;
51467;SDS011;37545;45.302;-122.946;2023-03-08T06:48:44;1.98;;;0.88;;
51467;SDS011;37545;45.302;-122.946;2023-03-08T06:51:16;0.88;;;0.57;;
51467;SDS011;37545;45.302;-122.946;2023-03-08T06:53:45;3.08;;;0.95;;
51467;SDS011;37545;45.302;-122.946;2023-03-08T06:56:15;1.58;;;0.70;;
51467;SDS011;37545;45.302;-122.946;2023-03-08T06:58:44;1.73;;;0.85;;
51467;SDS011;37545;45.302;-122.946;2023-03-08T07:01:13;1.50;;;0.95;;
51467;SDS011;37545;45.302;-122.946;2023-03-08T07:03:41;0.95;;;0.65;;
51467;SDS011;37545;45.302;-122.946;2023-03-08T07:06:11;2.00;;;1.00;;
51467;SDS011;37545;45.302;-122.946;2023-03-08T07:08:41;2.00;;;1.02;;
51467;SDS011;37545;45.302;-122.946;2023-03-08T07:11:10;6.25;;;1.30;;
51467;SDS011;37545;45.302;-122.946;2023-03-08T07:13:38;4.05;;;1.88;;
51467;SDS011;37545;45.302;-122.946;2023-03-08T07:16:08;1.55;;;1.10;;
51467;SDS011;37545;45.302;-122.946;2023-03-08T07:18:38;1.55;;;1.10;;
51467;SDS011;37545;45.302;-122.946;2023-03-08T07:21:07;1.83;;;1.00;;
51467;SDS011;37545;45.302;-122.946;2023-03-08T07:23:36;5.43;;;1.60;;
51467;SDS011;37545;45.302;-122.946;2023-03-08T07:26:07;2.30;;;1.88;;
51467;SDS011;37545;45.302;-122.946;2023-03-08T07:28:43;3.78;;;1.20;;
51467;SDS011;37545;45.302;-122.946;2023-03-08T07:31:14;3.03;;;1.23;;
51467;SDS011;37545;45.302;-122.946;2023-03-08T07:33:43;3.65;;;1.27;;
51467;SDS011;37545;45.302;-122.946;2023-03-08T07:36:11;1.17;;;1.00;;
51467;SDS011;37545;45.302;-122.946;2023-03-08T07:38:40;2.58;;;1.45;;
51467;SDS011;37545;45.302;-122.946;2023-03-08T07:41:10;2.33;;;1.60;;
51467;SDS011;37545;45.302;-122.946;2023-03-08T07:43:38;2.83;;;1.20;;
51467;SDS011;37545;45.302;-122.946;2023-03-08T07:46:07;1.55;;;1.27;;
51467;SDS011;37545;45.302;-122.946;2023-03-08T07:48:35;2.25;;;1.23;;
51467;SDS011;37545;45.302;-122.946;2023-03-08T07:51:04;2.50;;;1.55;;
51467;SDS011;37545;45.302;-122.946;2023-03-08T07:53:35;2.92;;;1.55;;
51467;SDS011;37545;45.302;-122.946;2023-03-08T07:56:04;2.90;;;1.20;;
51467;SDS011;37545;45.302;-122.946;2023-03-08T07:58:34;4.35;;;1.45;;
51467;SDS011;37545;45.302;-122.946;2023-03-08T08:01:06;3.63;;;1.50;;
51467;SDS011;37545;45.302;-122.946;2023-03-08T08:03:35;4.07;;;2.08;;
51467;SDS011;37545;45.302;-122.946;2023-03-08T08:06:04;2.78;;;1.55;;
51467;SDS011;37545;45.302;-122.946;2023-03-08T08:08:34;4.35;;;2.08;;
51467;SDS011;37545;45.302;-122.946;2023-03-08T08:11:08;2.67;;;1.98;;
51467;SDS011;37545;45.302;-122.946;2023-03-08T08:13:39;4.18;;;2.38;;
51467;SDS011;37545;45.302;-122.946;2023-03-08T08:16:08;5.07;;;2.30;;
51467;SDS011;37545;45.302;-122.946;2023-03-08T08:18:37;3.03;;;1.90;;
51467;SDS011;37545;45.302;-122.946;2023-03-08T08:21:06;6.13;;;2.20;;
51467;SDS011;37545;45.302;-122.946;2023-03-08T08:23:36;2.95;;;1.60;;
51467;SDS011;37545;45.302;-122.946;2023-03-08T08:26:06;4.28;;;2.40;;
51467;SDS011;37545;45.302;-122.946;2023-03-08T08:28:37;4.30;;;2.20;;
51467;SDS011;37545;45.302;-122.946;2023-03-08T08:31:09;4.07;;;2.27;;
51467;SDS011;37545;45.302;-122.946;2023-03-08T08:33:38;2.55;;;1.35;;
51467;SDS011;37545;45.302;-122.946;2023-03-08T08:36:07;3.33;;;1.73;;
51467;SDS011;37545;45.302;-122.946;2023-03-08T08:38:42;3.70;;;2.00;;
51467;SDS011;37545;45.302;-122.946;2023-03-08T08:41:12;5.45;;;1.92;;
51467;SDS011;37545;45.302;-122.946;2023-03-08T08:43:43;3.67;;;2.38;;
51467;SDS011;37545;45.302;-122.946;2023-03-08T08:46:13;5.40;;;2.60;;
51467;SDS011;37545;45.302;-122.946;2023-03-08T08:48:42;4.60;;;2.47;;
51467;SDS011;37545;45.302;-122.946;2023-03-08T08:51:11;6.93;;;2.15;;
51467;SDS011;37545;45.302;-122.946;2023-03-08T08:53:40;5.00;;;2.63;;
51467;SDS011;37545;45.302;-122.946;2023-03-08T08:56:11;8.50;;;2.85;;
51467;SDS011;37545;45.302;-122.946;2023-03-08T08:58:40;5.20;;;2.47;;
51467;SDS011;37545;45.302;-122.946;2023-03-08T09:01:14;3.42;;;1.80;;
51467;SDS011;37545;45.302;-122.946;2023-03-08T09:03:43;8.75;;;2.25;;
51467;SDS011;37545;45.302;-122.946;2023-03-08T09:06:12;4.18;;;2.30;;
51467;SDS011;37545;45.302;-122.946;2023-03-08T09:08:41;2.65;;;1.45;;
51467;SDS011;37545;45.302;-122.946;2023-03-08T09:11:09;3.30;;;1.70;;
51467;SDS011;37545;45.302;-122.946;2023-03-08T09:13:38;4.30;;;2.00;;
51467;SDS011;37545;45.302;-122.946;2023-03-08T09:16:15;3.65;;;1.98;;
51467;SDS011;37545;45.302;-122.946;2023-03-08T09:18:44;3.47;;;2.13;;
51467;SDS011;37545;45.302;-122.946;2023-03-08T09:21:13;4.75;;;2.17;;
51467;SDS011;37545;45.302;-122.946;2023-03-08T09:23:42;5.30;;;2.47;;
51467;SDS011;37545;45.302;-122.946;2023-03-08T09:26:11;2.72;;;2.17;;
51467;SDS011;37545;45.302;-122.946;2023-03-08T09:28:40;4.30;;;1.85;;
51467;SDS011;37545;45.302;-122.946;2023-03-08T09:31:09;3.22;;;2.10;;
51467;SDS011;37545;45.302;-122.946;2023-03-08T09:33:41;3.33;;;2.10;;
51467;SDS011;37545;45.302;-122.946;2023-03-08T09:36:11;4.15;;;2.65;;
51467;SDS011;37545;45.302;-122.946;2023-03-08T09:38:39;4.05;;;2.13;;
51467;SDS011;37545;45.302;-122.946;2023-03-08T09:41:19;5.00;;;2.03;;
51467;SDS011;37545;45.302;-122.946;2023-03-08T09:44:03;3.97;;;2.28;;
51467;SDS011;37545;45.302;-122.946;2023-03-08T09:46:39;3.55;;;2.70;;
51467;SDS011;37545;45.302;-122.946;2023-03-08T09:49:16;3.63;;;1.88;;
51467;SDS011;37545;45.302;-122.946;2023-03-08T09:51:49;3.22;;;1.98;;
51467;SDS011;37545;45.302;-122.946;2023-03-08T09:54:26;3.28;;;1.83;;
51467;SDS011;37545;45.302;-122.946;2023-03-08T09:56:55;2.50;;;1.75;;
51467;SDS011;37545;45.302;-122.946;2023-03-08T09:59:24;4.13;;;2.83;;
51467;SDS011;37545;45.302;-122.946;2023-03-08T10:02:00;3.00;;;1.50;;
51467;SDS011;37545;45.302;-122.946;2023-03-08T10:04:45;3.60;;;1.55;;
51467;SDS011;37545;45.302;-122.946;2023-03-08T10:07:21;2.63;;;1.42;;
51467;SDS011;37545;45.302;-122.946;2023-03-08T10:10:02;2.13;;;1.52;;
51467;SDS011;37545;45.302;-122.946;2023-03-08T10:15:42;2.38;;;1.48;;
51467;SDS011;37545;45.302;-122.946;2023-03-08T10:18:15;2.00;;;1.13;;
51467;SDS011;37545;45.302;-122.946;2023-03-08T10:20:56;2.72;;;1.52;;
51467;SDS011;37545;45.302;-122.946;2023-03-08T10:23:27;4.53;;;1.30;;
51467;SDS011;37545;45.302;-122.946;2023-03-08T10:25:58;3.47;;;1.60;;
51467;SDS011;37545;45.302;-122.946;2023-03-08T10:28:28;1.88;;;1.10;;
51467;SDS011;37545;45.302;-122.946;2023-03-08T10:30:57;2.38;;;1.45;;
51467;SDS011;37545;45.302;-122.946;2023-03-08T10:33:30;1.23;;;0.98;;
51467;SDS011;37545;45.302;-122.946;2023-03-08T10:36:03;2.58;;;1.25;;
51467;SDS011;37545;45.302;-122.946;2023-03-08T10:38:37;1.63;;;0.90;;
51467;SDS011;37545;45.302;-122.946;2023-03-08T10:41:11;0.90;;;0.80;;
51467;SDS011;37545;45.302;-122.946;2023-03-08T10:43:44;1.33;;;1.20;;
51467;SDS011;37545;45.302;-122.946;2023-03-08T10:46:14;1.73;;;1.30;;
51467;SDS011;37545;45.302;-122.946;2023-03-08T10:48:44;1.90;;;1.23;;
51467;SDS011;37545;45.302;-122.946;2023-03-08T10:51:18;2.90;;;1.50;;
51467;SDS011;37545;45.302;-122.946;2023-03-08T10:53:51;1.88;;;1.30;;
51467;SDS011;37545;45.302;-122.946;2023-03-08T10:56:22;1.95;;;1.40;;
51467;SDS011;37545;45.302;-122.946;2023-03-08T10:58:56;1.83;;;1.40;;
51467;SDS011;37545;45.302;-122.946;2023-03-08T11:01:26;1.98;;;1.48;;
51467;SDS011;37545;45.302;-122.946;2023-03-08T11:04:02;2.28;;;1.45;;
51467;SDS011;37545;45.302;-122.946;2023-03-08T11:06:34;2.35;;;1.33;;
51467;SDS011;37545;45.302;-122.946;2023-03-08T11:09:03;3.15;;;1.67;;
51467;SDS011;37545;45.302;-122.946;2023-03-08T11:11:45;3.97;;;1.55;;
51467;SDS011;37545;45.302;-122.946;2023-03-08T11:14:13;5.07;;;1.73;;
51467;SDS011;37545;45.302;-122.946;2023-03-08T11:16:54;3.63;;;1.95;;
51467;SDS011;37545;45.302;-122.946;2023-03-08T11:19:36;4.78;;;2.15;;
51467;SDS011;37545;45.302;-122.946;2023-03-08T11:22:17;5.55;;;2.75;;
51467;SDS011;37545;45.302;-122.946;2023-03-08T11:25:01;3.90;;;1.98;;
51467;SDS011;37545;45.302;-122.946;2023-03-08T11:27:51;2.50;;;1.38;;
51467;SDS011;37545;45.302;-122.946;2023-03-08T11:30:31;5.57;;;2.83;;
51467;SDS011;37545;45.302;-122.946;2023-03-08T11:33:16;4.35;;;2.00;;
51467;SDS011;37545;45.302;-122.946;2023-03-08T11:35:57;2.38;;;1.35;;
51467;SDS011;37545;45.302;-122.946;2023-03-08T11:38:31;2.67;;;1.23;;
51467;SDS011;37545;45.302;-122.946;2023-03-08T11:41:03;4.55;;;1.33;;
51467;SDS011;37545;45.302;-122.946;2023-03-08T11:43:58;4.75;;;1.70;;
51467;SDS011;37545;45.302;-122.946;2023-03-08T11:46:43;1.83;;;1.20;;
51467;SDS011;37545;45.302;-122.946;2023-03-08T11:52:13;1.20;;;0.95;;
51467;SDS011;37545;45.302;-122.946;2023-03-08T11:54:55;2.38;;;1.35;;
51467;SDS011;37545;45.302;-122.946;2023-03-08T11:57:34;1.70;;;0.85;;
51467;SDS011;37545;45.302;-122.946;2023-03-08T12:00:11;2.00;;;1.10;;
51467;SDS011;37545;45.302;-122.946;2023-03-08T12:02:47;2.53;;;1.42;;
51467;SDS011;37545;45.302;-122.946;2023-03-08T12:05:20;4.57;;;1.17;;
51467;SDS011;37545;45.302;-122.946;2023-03-08T12:07:54;2.03;;;1.20;;
51467;SDS011;37545;45.302;-122.946;2023-03-08T12:10:29;2.45;;;1.30;;
51467;SDS011;37545;45.302;-122.946;2023-03-08T12:13:11;1.40;;;0.93;;
51467;SDS011;37545;45.302;-122.946;2023-03-08T12:15:47;1.48;;;1.10;;
51467;SDS011;37545;45.302;-122.946;2023-03-08T12:18:22;1.13;;;0.60;;
51467;SDS011;37545;45.302;-122.946;2023-03-08T12:20:58;2.05;;;0.98;;
51467;SDS011;37545;45.302;-122.946;2023-03-08T12:23:38;1.70;;;0.88;;
51467;SDS011;37545;45.302;-122.946;2023-03-08T12:26:24;1.38;;;0.98;;
51467;SDS011;37545;45.302;-122.946;2023-03-08T12:28:57;2.13;;;1.25;;
51467;SDS011;37545;45.302;-122.946;2023-03-08T12:31:29;1.65;;;1.23;;
51467;SDS011;37545;45.302;-122.946;2023-03-08T12:34:09;2.38;;;1.23;;
51467;SDS011;37545;45.302;-122.946;2023-03-08T12:36:40;1.98;;;0.88;;
51467;SDS011;37545;45.302;-122.946;2023-03-08T12:39:22;2.95;;;0.75;;
51467;SDS011;37545;45.302;-122.946;2023-03-08T12:42:10;1.60;;;1.00;;
51467;SDS011;37545;45.302;-122.946;2023-03-08T12:44:41;2.35;;;1.27;;
51467;SDS011;37545;45.302;-122.946;2023-03-08T12:47:17;1.77;;;1.27;;
51467;SDS011;37545;45.302;-122.946;2023-03-08T12:49:49;1.73;;;1.00;;
51467;SDS011;37545;45.302;-122.946;2023-03-08T12:52:24;2.00;;;1.10;;
51467;SDS011;37545;45.302;-122.946;2023-03-08T12:54:58;1.98;;;1.42;;
51467;SDS011;37545;45.302;-122.946;2023-03-08T12:57:32;5.80;;;1.35;;
51467;SDS011;37545;45.302;-122.946;2023-03-08T13:00:22;2.58;;;0.93;;
51467;SDS011;37545;45.302;-122.946;2023-03-08T13:03:00;2.33;;;0.70;;
51467;SDS011;37545;45.302;-122.946;2023-03-08T13:05:32;2.92;;;0.90;;
51467;SDS011;37545;45.302;-122.946;2023-03-08T13:08:18;6.22;;;1.23;;
51467;SDS011;37545;45.302;-122.946;2023-03-08T13:10:57;1.92;;;1.30;;
51467;SDS011;37545;45.302;-122.946;2023-03-08T13:13:44;2.92;;;1.40;;
51467;SDS011;37545;45.302;-122.946;2023-03-08T13:16:19;1.67;;;1.08;;
51467;SDS011;37545;45.302;-122.946;2023-03-08T13:19:00;1.95;;;1.40;;
51467;SDS011;37545;45.302;-122.946;2023-03-08T13:21:38;3.55;;;1.23;;
51467;SDS011;37545;45.302;-122.946;2023-03-08T13:24:16;3.90;;;1.70;;
51467;SDS011;37545;45.302;-122.946;2023-03-08T13:26:59;2.40;;;1.23;;
51467;SDS011;37545;45.302;-122.946;2023-03-08T13:30:21;2.72;;;1.50;;
51467;SDS011;37545;45.302;-122.946;2023-03-08T13:32:51;1.85;;;1.25;;
51467;SDS011;37545;45.302;-122.946;2023-03-08T13:35:20;2.28;;;1.02;;
51467;SDS011;37545;45.302;-122.946;2023-03-08T13:37:52;2.97;;;1.30;;
51467;SDS011;37545;45.302;-122.946;2023-03-08T13:40:22;5.72;;;1.55;;
51467;SDS011;37545;45.302;-122.946;2023-03-08T13:42:51;2.72;;;1.08;;
51467;SDS011;37545;45.302;-122.946;2023-03-08T13:45:23;3.40;;;1.45;;
51467;SDS011;37545;45.302;-122.946;2023-03-08T13:47:52;3.25;;;1.52;;
51467;SDS011;37545;45.302;-122.946;2023-03-08T13:50:26;2.88;;;1.45;;
51467;SDS011;37545;45.302;-122.946;2023-03-08T13:52:57;3.88;;;1.30;;
51467;SDS011;37545;45.302;-122.946;2023-03-08T13:55:31;3.10;;;1.85;;
51467;SDS011;37545;45.302;-122.946;2023-03-08T13:58:01;1.92;;;1.38;;
51467;SDS011;37545;45.302;-122.946;2023-03-08T14:00:32;2.85;;;1.35;;
51467;SDS011;37545;45.302;-122.946;2023-03-08T14:03:02;2.93;;;1.33;;
51467;SDS011;37545;45.302;-122.946;2023-03-08T14:05:38;6.15;;;2.47;;
51467;SDS011;37545;45.302;-122.946;2023-03-08T14:08:17;4.63;;;1.92;;
51467;SDS011;37545;45.302;-122.946;2023-03-08T14:10:48;5.90;;;2.28;;
51467;SDS011;37545;45.302;-122.946;2023-03-08T14:13:20;5.63;;;2.15;;
51467;SDS011;37545;45.302;-122.946;2023-03-08T14:15:55;5.43;;;2.42;;
51467;SDS011;37545;45.302;-122.946;2023-03-08T14:18:26;6.53;;;2.35;;
51467;SDS011;37545;45.302;-122.946;2023-03-08T14:21:01;4.35;;;2.25;;
51467;SDS011;37545;45.302;-122.946;2023-03-08T14:23:33;4.75;;;1.98;;
51467;SDS011;37545;45.302;-122.946;2023-03-08T14:26:05;5.03;;;2.03;;
51467;SDS011;37545;45.302;-122.946;2023-03-08T14:28:49;5.55;;;2.85;;
51467;SDS011;37545;45.302;-122.946;2023-03-08T14:31:30;6.28;;;2.60;;
51467;SDS011;37545;45.302;-122.946;2023-03-08T14:33:59;4.95;;;2.30;;
51467;SDS011;37545;45.302;-122.946;2023-03-08T14:36:30;6.25;;;2.50;;
51467;SDS011;37545;45.302;-122.946;2023-03-08T14:38:59;6.10;;;2.63;;